Aeroporto :
LOGIN :

Iscrizione | Disclaimer

   EN    FR    IT 

 










Sommario :    VFR   VFR Marginale   IFR   IFR Intensivo   IFR Molto Intensivo
Visibilità : 
Base nubi : 
>= 8 km
>= 3000ft
5 / 8 km
1000 / 3000 ft
1500m / 5 km
500 / 1000 ft
800 / 1500m
200 / 500 ft
< 800m
< 200 ft
Simboli :   Temporali  Nebbia  Neve Forte  Precipitazioni Forti  Vento > 20 kt
SIGMETs :   Varie  Temporali  Ghiacco  Turbolenza  Onda orograficha  Ceneri Vulcaniche






- Altitudine del aeroporto : 699 ft
- Codice IATA : PAD


EDLP - Paderborn Lippstadt

ULTIMO METAR :
  • 191650Z 29006KT 240V360 CAVOK 26/12 Q1014

METARs OBSOLETI :
  • 191620Z 31005KT 230V010 CAVOK 26/13 Q1014
  • 191550Z 33005KT 280V040 CAVOK 26/13 Q1014
  • 191520Z VRB04KT CAVOK 26/12 Q1013
  • 191450Z 33007KT 270V020 CAVOK 26/13 Q1013
  • 191420Z 31006KT 270V360 CAVOK 25/13 Q1013

TAF TAF EDLP
Valido dal 19 a 12 ore il 20 a 12 ore UTC


191100Z 1912/2012 31005KT 9999 SCT030
BECMG 1918/1920 25004KT
BECMG 2000/2003 BKN010
TEMPO 2000/2007 3000 SHRA BKN012CB
PROB30
TEMPO 2003/2008 BKN004
BECMG 2008/2011 SCT012 BKN020



MetMap, La meteo Aeronautica in un colpo d'occhio ! - Copyright ORBIFLY Dicembre 2007 - Disclaimer

ORBIFLY MET'MAP TEAM :

Programmazione e sviluppo : Alexandra Zaïnal
Concezione : Baudouin d'Aumeries
Supporto tecnico e logistico : Manuel Goepfert
Aiuto : Marc-Olivier Méhu
Aiuto per la traduzione : Arnaldo La Scala




FONTI E CREDITI :

   NOAA